KRMG/RMG METAR and TAF weather

Enter ICAO airport designator
Station Type Date Time Source
KRMG METAR 2022/08/16 17:53 UTC NOAA

KRMG 161753Z AUTO 35006KT 10SM FEW041 SCT048 SCT055 30/19 A2995 RMK AO2 SLP130 T03000194 10306 20233 50001


Station Type Date Time Source
KRMG Decoded METAR 2022/08/16 17:53 UTC NOAA

ROME R. B. RUSSELL AIRPORT, GA, United States (KRMG) 34-21N 085-10W 193M
Aug 16, 2022 - 01:53 PM EDT / 2022.08.16 1753 UTC
Wind: from the N (350 degrees) at 7 MPH (6 KT):0
Visibility: 10 mile(s):0
Sky conditions: partly cloudy
Temperature: 86.0 F (30.0 C)
Dew Point: 66.9 F (19.4 C)
Relative Humidity: 53%
Pressure (altimeter): 29.95 in. Hg (1014 hPa)
Pressure tendency: 0.00 inches (0.1 hPa) higher than three hours ago
ob: KRMG 161753Z AUTO 35006KT 10SM FEW041 SCT048 SCT055 30/19 A2995 RMK AO2 SLP130 T03000194 10306 20233 50001
cycle: 18

Station Type Date Time Source
KRMG TAF UTC NOAA

Error!

Example: see airport list